Flight Track Log - Related Links

Times and Time Zones

All times are in EDT time to prevent confusion due to time zone crossing. See the CSN6511 flight status page for this flight to view local times or setup timezone preferences in your user account.


Time Position Orientation Groundspeed Altitude Reporting Facility
EDT Latitude Longitude Course Direction KTS MPH feet Rate Location/Type
Fri 06:02:00 AM 34.8867 112.3759 356° North  Level Estimated
Fri 06:03:00 AM 35.0323 112.3634 356° North  Level Estimated
Fri 06:04:00 AM 35.1779 112.3509 356° North  Level Estimated
Fri 06:05:00 AM 35.3235 112.3384 356° North  Level Estimated
Fri 06:06:00 AM 35.4691 112.3258 356° North  Level Estimated
Fri 06:07:00 AM 35.6147 112.3131 356° North  Level Estimated
Fri 06:08:00 AM 35.7603 112.3005 356° North  Level Estimated
Fri 06:09:00 AM 35.9058 112.2877 356° North  Level Estimated
Fri 06:10:00 AM 36.0514 112.2749 356° North  Level Estimated
Fri 06:11:00 AM 36.1970 112.2621 356° North  Level Estimated
Fri 06:12:00 AM 36.3426 112.2492 356° North  Level Estimated
Fri 06:13:00 AM 36.4882 112.2363 356° North  Level Estimated
Fri 06:14:00 AM 36.6338 112.2233 356° North  Level Estimated
Fri 06:15:00 AM 36.7794 112.2103 356° North  Level Estimated
Fri 06:16:00 AM 36.9249 112.1972 356° North  Level Estimated
Fri 06:17:00 AM 37.0705 112.1841 356° North  Level Estimated
Fri 06:18:00 AM 37.2161 112.1710 356° North  Level Estimated
Fri 06:19:00 AM 37.3617 112.1577 356° North  Level Estimated
Fri 06:20:00 AM 37.5072 112.1444 356° North  Level Estimated
Fri 06:21:00 AM 37.6528 112.1311 356° North  Level Estimated
Fri 06:22:00 AM 37.7984 112.1177 356° North  Level Estimated
Fri 06:23:00 AM 37.9439 112.1043 356° North  Level Estimated
Fri 06:24:00 AM 38.0895 112.0908 356° North  Level Estimated
Fri 06:25:00 AM 38.2351 112.0773 356° North  Level Estimated
Fri 06:26:00 AM 38.3806 112.0637 356° North  Level Estimated
Fri 06:27:00 AM 38.5262 112.0500 356° North  Level Estimated
Fri 06:28:00 AM 38.6717 112.0363 356° North  Level Estimated
Fri 06:29:00 AM 38.8173 112.0226 356° North  Level Estimated
Fri 06:30:00 AM 38.9629 112.0088 356° North  Level Estimated
Fri 06:31:00 AM 39.1084 111.9949 356° North  Level Estimated
Fri 06:32:00 AM 39.2540 111.9809 356° North  Level Estimated
Fri 06:33:00 AM 39.3995 111.9670 356° North  Level Estimated
Fri 06:34:00 AM 39.5451 111.9529 356° North  Level Estimated
Fri 06:35:00 AM 39.6906 111.9388 356° North  Level Estimated
Fri 06:36:00 AM 39.8362 111.9246 356° North  Level Estimated
Fri 06:37:00 AM 39.9817 111.9104 356° North  Level Estimated
Fri 06:38:00 AM 40.1273 111.8961 356° North  Level Estimated
Fri 06:39:00 AM 40.2728 111.8818 356° North  Level Estimated
Fri 06:40:00 AM 40.4184 111.8673 356° North  Level Estimated
Fri 06:41:00 AM 40.5639 111.8529 356° North  Level Estimated
Fri 06:42:00 AM 40.7094 111.8383 356° North  Level Estimated
Fri 06:43:00 AM 40.8514 111.8241 356° North  Level Estimated
Fri 06:44:00 AM 40.8514 111.8241 49° Northeast  Level Estimated
Fri 06:45:00 AM 40.8514 111.8241 49° Northeast  Level Estimated
Fri 06:46:00 AM 40.8514 111.8241 49° Northeast  Level Estimated
Fri 06:47:00 AM 40.8514 111.8241 49° Northeast  Level Estimated
Fri 06:48:00 AM 40.8514 111.8241 49° Northeast  Level Estimated
Fri 06:49:00 AM 40.8514 111.8241 49° Northeast  Level Estimated
Fri 06:50:00 AM 40.8514 111.8241 49° Northeast  Level Estimated
Fri 06:51:00 AM 40.8514 111.8241 49° Northeast  Level Estimated

Login

Don't have an account? Register now (free) for customized features, flight alerts, and more!